Terminal Aerodrome Forecast
Issued by NWS

Home | Current Version | Previous Version | Text Only | Print | Product List | Glossary On
Versions: 1 2 3 4 5 6 7 8 9 10 11 12 13 14 15 16 17
000
FTUS44 KTSA 180154 AAA
TAFXNA
TAF AMD
KXNA 180154Z 1802/1824 00000KT P6SM OVC009
     FM181000 14003KT 4SM BR BKN007
     FM181600 16006KT P6SM BKN015=

USA.gov is the U.S. government's official web portal to all federal, state and local government web resources and services.